.
WxDataArchive / Data Records for 2015-09-17
2015-09-16 September 2015 2015-09-18

Data Records for Thursday, 17 September 2015

Time	Temp	Chill	HIndex	Humid	Dewpt	 Wind 	HiWind	WindDir	Rain 	Barom 
-----	----	-----	------	-----	-----	------	------	-------	-----	----- 
00:00	61.2	61.2	61.2	78	54.3	0	0	---	0.00	30.129 
00:05	61.2	61.2	61.2	78	54.3	0	0	---	0.00	30.129 
00:10	61.2	61.2	61.2	78	54.3	0	0	---	0.00	30.129 
00:15	61.2	61.2	61.2	78	54.3	0	0	---	0.00	30.128 
00:20	61.3	61.3	61.3	78	54.4	0	0	---	0.00	30.128 
00:25	61.5	61.5	61.5	77	54.2	0	0	---	0.00	30.128 
00:30	61.6	61.6	61.6	77	54.3	0	0	---	0.00	30.127 
00:35	62.0	62.0	62.0	76	54.3	0	0	---	0.00	30.127 
00:40	62.3	62.3	62.3	75	54.3	0	0	---	0.00	30.127 
00:45	62.6	62.6	62.6	74	54.2	0	0	---	0.00	30.128 
00:50	62.7	62.7	62.7	74	54.3	0	0	---	0.00	30.128 
00:55	62.9	62.9	62.9	74	54.5	0	0	---	0.00	30.128 
01:00	63.1	63.1	63.1	74	54.7	0	0	---	0.00	30.127 
01:05	62.9	62.9	62.9	74	54.5	0	0	---	0.00	30.127 
01:10	62.9	62.9	62.9	74	54.5	0	0	---	0.00	30.127 
01:15	62.7	62.7	62.7	74	54.3	0	0	---	0.00	30.123 
01:20	62.7	62.7	62.7	74	54.3	0	0	---	0.00	30.123 
01:25	62.6	62.6	62.6	74	54.2	0	0	---	0.00	30.123 
01:30	62.6	62.6	62.6	75	54.6	0	0	---	0.00	30.123 
01:35	62.4	62.4	62.4	75	54.4	0	0	---	0.00	30.123 
01:40	62.4	62.4	62.4	75	54.4	0	0	---	0.00	30.123 
01:45	62.3	62.3	62.3	76	54.6	0	0	---	0.00	30.120 
01:50	62.1	62.1	62.1	76	54.4	0	0	---	0.00	30.120 
01:55	62.0	62.0	62.0	76	54.3	0	0	---	0.00	30.120 
02:00	61.8	61.8	61.8	77	54.5	0	0	---	0.00	30.121 
02:05	61.6	61.6	61.6	77	54.3	0	0	---	0.00	30.121 
02:10	61.5	61.5	61.5	77	54.2	0	0	---	0.00	30.121 
02:15	61.3	61.3	61.3	78	54.4	0	0	---	0.00	30.120 
02:20	61.2	61.2	61.2	78	54.3	0	0	---	0.00	30.120 
02:25	61.2	61.2	61.2	79	54.6	0	0	---	0.00	30.120 
02:30	61.0	61.0	61.0	79	54.4	0	0	---	0.00	30.119 
02:35	60.9	60.9	60.9	79	54.3	0	0	---	0.00	30.119 
02:40	60.7	60.7	60.7	79	54.1	0	0	---	0.00	30.119 
02:45	60.5	60.5	60.5	79	54.0	0	0	---	0.00	30.117 
02:50	60.4	60.4	60.4	80	54.2	0	0	---	0.00	30.117 
02:55	60.2	60.2	60.2	81	54.3	0	0	---	0.00	30.117 
03:00	60.2	60.2	60.2	81	54.3	0	0	---	0.00	30.115 
03:05	60.1	60.1	60.1	81	54.2	0	0	---	0.00	30.115 
03:10	59.9	59.9	59.9	81	54.1	0	0	---	0.00	30.115 
03:15	59.8	59.8	59.8	81	54.0	0	0	---	0.00	30.112 
03:20	59.6	59.6	59.6	82	54.1	0	0	---	0.00	30.112 
03:25	59.3	59.3	59.3	82	53.8	0	0	---	0.00	30.112 
03:30	59.2	59.2	59.2	82	53.7	0	0	---	0.00	30.111 
03:35	58.9	58.9	58.9	83	53.7	0	0	---	0.00	30.111 
03:40	58.7	58.7	58.7	83	53.5	0	0	---	0.00	30.111 
03:45	58.4	58.4	58.4	84	53.6	0	0	---	0.00	30.110 
03:50	58.3	58.3	58.3	84	53.5	0	0	---	0.00	30.110 
03:55	58.1	58.1	58.1	84	53.3	0	0	---	0.00	30.110 
04:00	58.0	58.0	58.0	85	53.5	0	0	---	0.00	30.111 
04:05	57.8	57.8	57.8	85	53.3	0	0	---	0.00	30.111 
04:10	57.6	57.6	57.6	86	53.4	0	0	---	0.00	30.111 
04:15	57.5	57.5	57.5	86	53.3	0	0	---	0.00	30.112 
04:20	57.3	57.3	57.3	86	53.1	0	0	---	0.00	30.112 
04:25	57.2	57.2	57.2	86	53.0	0	0	---	0.00	30.112 
04:30	57.0	57.0	57.0	86	52.9	0	0	---	0.00	30.111 
04:35	56.9	56.9	56.9	87	53.1	0	0	---	0.00	30.111 
04:40	56.7	56.7	56.7	87	52.9	0	0	---	0.00	30.111 
04:45	56.6	56.6	56.6	87	52.8	0	0	---	0.00	30.113 
04:50	56.6	56.6	56.6	88	53.1	0	0	---	0.00	30.113 
04:55	56.5	56.5	56.5	88	53.0	0	0	---	0.00	30.113 
05:00	56.5	56.5	56.5	88	53.0	0	0	---	0.00	30.113 
05:05	56.3	56.3	56.3	89	53.1	0	0	---	0.00	30.113 
05:10	56.2	56.2	56.2	89	53.0	0	0	---	0.00	30.113 
05:15	56.2	56.2	56.2	89	53.0	0	0	---	0.00	30.116 
05:20	56.0	56.0	56.0	89	52.8	0	0	---	0.00	30.116 
05:25	55.9	55.9	55.9	89	52.7	0	0	---	0.00	30.116 
05:30	55.7	55.7	55.7	89	52.5	0	0	---	0.00	30.117 
05:35	55.7	55.7	55.7	89	52.5	0	0	---	0.00	30.117 
05:40	55.6	55.6	55.6	90	52.7	0	0	---	0.00	30.117 
05:45	55.6	55.6	55.6	89	52.4	0	0	---	0.00	30.116 
05:50	55.4	55.4	55.4	90	52.5	0	0	---	0.00	30.116 
05:55	55.4	55.4	55.4	90	52.5	0	0	---	0.00	30.116 
06:00	55.3	55.3	55.3	90	52.4	0	0	---	0.00	30.116 
06:05	55.3	55.3	55.3	90	52.4	0	0	---	0.00	30.116 
06:10	55.1	55.1	55.1	90	52.2	0	0	---	0.00	30.116 
06:15	55.0	55.0	55.0	91	52.4	0	0	---	0.00	30.118 
06:20	54.8	54.8	54.8	91	52.2	0	0	---	0.00	30.118 
06:25	54.8	54.8	54.8	91	52.2	0	0	---	0.00	30.118 
06:30	54.8	54.8	54.8	91	52.2	0	0	---	0.00	30.118 
06:35	54.7	54.7	54.7	91	52.1	0	0	---	0.00	30.118 
06:40	54.7	54.7	54.7	91	52.1	0	0	---	0.00	30.118 
06:45	54.5	54.5	54.5	92	52.2	0	0	---	0.00	30.118 
06:50	54.5	54.5	54.5	92	52.2	0	0	---	0.00	30.118 
06:55	54.5	54.5	54.5	92	52.2	0	0	---	0.00	30.118 
07:00	54.4	54.4	54.4	92	52.1	0	0	---	0.00	30.121 
07:05	54.4	54.4	54.4	92	52.1	0	0	---	0.00	30.121 
07:10	54.2	54.2	54.2	92	51.9	0	0	---	0.00	30.121 
07:15	54.1	54.1	54.1	92	51.8	0	0	---	0.00	30.124 
07:20	53.9	53.9	53.9	92	51.6	0	0	---	0.00	30.124 
07:25	53.9	53.9	53.9	92	51.6	0	0	---	0.00	30.124 
07:30	53.8	53.8	53.8	92	51.5	0	0	---	0.00	30.124 
07:35	53.8	53.8	53.8	92	51.5	0	0	---	0.00	30.124 
07:40	53.6	53.6	53.6	92	51.3	0	0	---	0.00	30.124 
07:45	53.6	53.6	53.6	92	51.3	0	0	---	0.00	30.126 
07:50	53.6	53.6	53.6	92	51.3	0	0	---	0.00	30.126 
07:55	53.9	53.9	53.9	92	51.6	0	0	---	0.00	30.126 
08:00	53.9	53.9	53.9	92	51.6	0	0	---	0.00	30.126 
08:05	54.1	54.1	54.1	93	52.1	0	0	---	0.00	30.126 
08:10	54.4	54.4	54.4	93	52.4	0	0	---	0.00	30.126 
08:15	54.5	54.5	54.5	93	52.5	0	0	---	0.00	30.139 
08:20	54.8	54.8	54.8	93	52.8	0	0	---	0.00	30.139 
08:25	55.1	55.1	55.1	93	53.1	0	0	---	0.00	30.139 
08:30	55.6	55.6	55.6	93	53.6	0	0	---	0.00	30.142 
08:35	56.0	56.0	56.0	94	54.3	0	0	---	0.00	30.142 
08:40	56.5	56.5	56.5	94	54.8	0	0	---	0.00	30.142 
08:45	57.0	57.0	57.0	94	55.3	0	0	---	0.00	30.138 
08:50	57.5	57.5	57.5	94	55.8	0	1	112	0.00	30.138 
08:55	58.1	58.1	58.1	93	56.1	0	0	---	0.00	30.138 
09:00	58.7	58.7	58.7	93	56.7	0	0	---	0.00	30.136 
09:05	59.3	59.3	59.3	92	57.0	0	1	112	0.00	30.136 
09:10	59.9	59.9	59.9	90	57.0	0	0	---	0.00	30.136 
09:15	60.4	60.4	60.4	88	56.8	0	1	112	0.00	30.133 
09:20	61.2	61.2	61.2	86	57.0	0	1	112	0.00	30.133 
09:25	61.8	61.8	61.8	84	56.9	0	1	112	0.00	30.133 
09:30	62.4	62.4	62.4	82	56.8	0	1	112	0.00	30.124 
09:35	63.1	63.1	63.1	80	56.8	0	3	112	0.00	30.124 
09:40	63.9	63.9	63.9	77	56.5	0	1	112	0.00	30.124 
09:45	64.5	64.5	64.5	75	56.4	0	1	112	0.00	30.120 
09:50	65.2	65.2	65.2	73	56.3	0	1	112	0.00	30.120 
09:55	66.0	66.0	66.0	72	56.7	0	1	112	0.00	30.120 
10:00	66.6	66.6	66.6	71	56.9	0	0	---	0.00	30.117 
10:05	67.3	67.3	67.3	69	56.8	0	1	112	0.00	30.117 
10:10	68.3	68.3	68.3	66	56.5	0	2	112	0.00	30.117 
10:15	69.6	69.6	69.6	63	56.4	0	2	112	0.00	30.110 
10:20	70.4	70.4	70.4	61	56.3	0	3	112	0.00	30.110 
10:25	71.5	71.5	71.5	59	56.4	0	1	112	0.00	30.110 
10:30	72.3	72.3	72.3	58	56.7	0	1	135	0.00	30.106 
10:35	73.0	73.0	73.0	58	57.3	0	0	---	0.00	30.106 
10:40	73.9	73.9	73.9	56	57.2	0	2	135	0.00	30.106 
10:45	74.7	74.7	74.7	53	56.4	0	1	135	0.00	30.101 
10:50	75.4	75.4	77.8	51	56.0	1	4	112	0.00	30.101 
10:55	75.8	75.8	78.0	52	56.9	0	2	68	0.00	30.101 
11:00	76.1	76.1	78.1	50	56.1	0	4	68	0.00	30.098 
11:05	76.7	76.7	78.4	50	56.6	1	2	90	0.00	30.098 
11:10	76.8	76.8	78.5	51	57.3	0	2	90	0.00	30.098 
11:15	76.8	76.8	78.5	50	56.7	0	1	90	0.00	30.095 
11:20	77.0	77.0	78.6	51	57.5	0	1	90	0.00	30.095 
11:25	77.2	77.2	78.7	51	57.6	0	1	90	0.00	30.095 
11:30	77.9	77.9	79.2	50	57.7	0	1	90	0.00	30.097 
11:35	78.3	78.3	79.3	48	57.0	0	1	90	0.00	30.097 
11:40	78.8	78.8	79.6	47	56.8	1	4	90	0.00	30.097 
11:45	79.4	79.4	80.1	47	57.4	0	1	90	0.00	30.087 
11:50	79.6	79.6	80.0	44	55.7	0	2	90	0.00	30.087 
11:55	79.4	79.4	80.0	46	56.8	0	2	22	0.00	30.087 
12:00	79.2	79.2	79.7	44	55.4	0	2	0	0.00	30.083 
12:05	79.8	79.8	80.3	46	57.2	0	1	0	0.00	30.083 
12:10	80.5	80.5	80.4	41	54.6	0	3	270	0.00	30.083 
12:15	80.9	80.9	80.7	41	55.0	1	3	248	0.00	30.077 
12:20	81.1	81.1	80.6	39	53.8	1	3	248	0.00	30.077 
12:25	80.5	80.5	80.4	41	54.6	1	5	248	0.00	30.077 
12:30	80.3	80.3	80.3	42	55.1	1	5	270	0.00	30.075 
12:35	80.5	80.5	80.3	40	53.9	1	4	270	0.00	30.075 
12:40	80.9	80.9	80.6	40	54.3	1	4	90	0.00	30.075 
12:45	81.1	81.1	80.6	39	53.8	1	5	90	0.00	30.066 
12:50	80.9	80.9	80.5	39	53.6	1	6	270	0.00	30.066 
12:55	80.9	80.9	80.5	39	53.6	1	4	270	0.00	30.066 
13:00	80.9	80.9	80.4	38	52.9	1	3	135	0.00	30.062 
13:05	81.2	81.2	80.6	38	53.1	1	5	0	0.00	30.062 
13:10	81.4	81.4	80.7	37	52.6	0	3	292	0.00	30.062 
13:15	81.6	81.6	80.8	37	52.8	1	7	0	0.00	30.055 
13:20	81.8	81.8	80.8	35	51.4	1	4	112	0.00	30.055 
13:25	82.0	82.0	81.0	36	52.4	1	6	270	0.00	30.055 
13:30	81.8	81.8	80.8	35	51.4	2	5	90	0.00	30.048 
13:35	81.6	81.6	80.6	35	51.3	1	5	68	0.00	30.048 
13:40	81.8	81.8	80.8	35	51.4	1	5	112	0.00	30.048 
13:45	82.0	82.0	80.8	34	50.8	1	4	112	0.00	30.043 
13:50	82.0	82.0	81.0	36	52.4	1	3	270	0.00	30.043 
13:55	82.2	82.2	81.0	34	51.0	0	3	68	0.00	30.043 
14:00	82.2	82.2	81.1	35	51.8	1	4	315	0.00	30.038 
14:05	82.0	82.0	81.3	39	54.6	1	3	270	0.00	30.038 
14:10	82.0	82.0	80.8	34	50.8	1	4	270	0.00	30.038 
14:15	82.2	82.2	81.2	36	52.6	1	4	90	0.00	30.034 
14:20	82.4	82.4	81.2	35	52.0	1	3	90	0.00	30.034 
14:25	82.4	82.4	81.0	33	50.4	1	4	292	0.00	30.034 
14:30	82.6	82.6	81.4	35	52.1	1	3	0	0.00	30.031 
14:35	83.0	83.0	81.5	33	50.9	1	6	270	0.00	30.031 
14:40	82.8	82.8	81.4	34	51.5	1	5	68	0.00	30.031 
14:45	83.0	83.0	81.5	33	50.9	0	2	0	0.00	30.027 
14:50	83.4	83.4	82.2	36	53.6	0	2	338	0.00	30.027 
14:55	83.6	83.6	81.8	31	49.7	1	4	45	0.00	30.027 
15:00	83.4	83.4	81.6	31	49.6	1	3	45	0.00	30.018 
15:05	83.4	83.4	81.9	34	52.1	1	4	90	0.00	30.018 
15:10	83.2	83.2	81.5	31	49.4	1	4	90	0.00	30.018 
15:15	83.0	83.0	81.4	32	50.1	1	4	90	0.00	30.019 
15:20	83.2	83.2	81.5	31	49.4	0	3	90	0.00	30.019 
15:25	83.6	83.6	82.0	33	51.4	0	2	90	0.00	30.019 
15:30	83.6	83.6	81.9	32	50.6	1	4	90	0.00	30.013 
15:35	83.4	83.4	81.6	31	49.6	1	4	292	0.00	30.013 
15:40	83.2	83.2	81.6	32	50.2	1	4	292	0.00	30.013 
15:45	83.2	83.2	81.6	32	50.2	0	1	292	0.00	30.007 
15:50	83.2	83.2	81.5	31	49.4	1	2	292	0.00	30.007 
15:55	83.2	83.2	81.6	32	50.2	0	2	22	0.00	30.007 
16:00	83.0	83.0	81.4	32	50.1	1	4	270	0.00	30.004 
16:05	82.8	82.8	81.3	33	50.7	0	2	270	0.00	30.004 
16:10	82.6	82.6	81.2	33	50.6	0	3	270	0.00	30.004 
16:15	82.4	82.4	81.0	33	50.4	0	3	270	0.00	29.996 
16:20	82.4	82.4	81.3	36	52.7	0	2	292	0.00	29.996 
16:25	82.4	82.4	80.9	32	49.5	1	4	292	0.00	29.996 
16:30	82.4	82.4	81.0	33	50.4	0	1	292	0.00	29.994 
16:35	82.2	82.2	80.9	33	50.2	0	3	292	0.00	29.994 
16:40	82.2	82.2	81.0	34	51.0	0	3	292	0.00	29.994 
16:45	82.2	82.2	81.0	34	51.0	1	4	292	0.00	29.989 
16:50	82.0	82.0	80.9	35	51.6	0	1	292	0.00	29.989 
16:55	82.0	82.0	80.8	34	50.8	0	2	292	0.00	29.989 
17:00	82.0	82.0	80.9	35	51.6	0	1	292	0.00	29.986 
17:05	82.0	82.0	80.7	33	50.0	0	3	292	0.00	29.986 
17:10	82.0	82.0	80.8	34	50.8	0	2	292	0.00	29.986 
17:15	81.8	81.8	80.7	34	50.7	0	1	292	0.00	29.985 
17:20	81.8	81.8	80.8	35	51.4	0	2	292	0.00	29.985 
17:25	81.8	81.8	80.7	34	50.7	0	1	292	0.00	29.985 
17:30	81.8	81.8	80.7	34	50.7	0	1	292	0.00	29.976 
17:35	81.6	81.6	80.5	33	49.7	0	3	292	0.00	29.976 
17:40	81.6	81.6	80.6	35	51.3	0	1	292	0.00	29.976 
17:45	81.6	81.6	80.6	35	51.3	0	1	292	0.00	29.973 
17:50	81.4	81.4	80.4	34	50.3	0	1	292	0.00	29.973 
17:55	81.4	81.4	80.4	34	50.3	0	1	292	0.00	29.973 
18:00	81.4	81.4	80.4	34	50.3	0	3	292	0.00	29.963 
18:05	81.4	81.4	80.2	32	48.7	0	3	68	0.00	29.963 
18:10	81.2	81.2	80.3	34	50.1	0	2	68	0.00	29.963 
18:15	80.9	80.9	80.1	35	50.7	0	1	68	0.00	29.959 
18:20	80.7	80.7	80.0	35	50.5	0	1	68	0.00	29.959 
18:25	80.5	80.5	79.9	35	50.3	0	3	68	0.00	29.959 
18:30	80.5	80.5	79.9	35	50.3	0	1	68	0.00	29.950 
18:35	80.3	80.3	79.7	35	50.1	0	1	68	0.00	29.950 
18:40	80.1	80.1	79.8	37	51.5	0	1	68	0.00	29.950 
18:45	79.9	79.9	79.6	37	51.3	0	2	68	0.00	29.955 
18:50	79.8	79.8	79.7	39	52.6	0	2	68	0.00	29.955 
18:55	79.6	79.6	79.6	39	52.4	0	0	---	0.00	29.955 
19:00	79.2	79.2	79.3	39	52.1	0	2	68	0.00	29.962 
19:05	79.0	79.0	79.2	39	51.9	0	1	68	0.00	29.962 
19:10	78.6	78.6	79.0	40	52.2	0	0	---	0.00	29.962 
19:15	78.5	78.5	79.1	41	52.8	0	0	---	0.00	29.962 
19:20	78.1	78.1	78.8	41	52.5	0	0	---	0.00	29.962 
19:25	77.7	77.7	78.6	41	52.1	0	0	---	0.00	29.962 
19:30	77.4	77.4	78.6	43	53.1	0	0	---	0.00	29.964 
19:35	77.0	77.0	78.4	43	52.8	0	0	---	0.00	29.964 
19:40	76.5	76.5	78.2	44	52.9	0	0	---	0.00	29.964 
19:45	76.0	76.0	78.0	44	52.5	0	0	---	0.00	29.964 
19:50	75.6	75.6	77.8	46	53.3	0	0	---	0.00	29.964 
19:55	75.1	75.1	77.7	46	52.9	0	0	---	0.00	29.964 
20:00	74.6	74.6	74.6	48	53.6	0	0	---	0.00	29.964 
20:05	74.2	74.2	74.2	49	53.8	0	0	---	0.00	29.964 
20:10	73.7	73.7	73.7	49	53.3	0	0	---	0.00	29.964 
20:15	73.3	73.3	73.3	49	53.0	0	0	---	0.00	29.958 
20:20	73.0	73.0	73.0	51	53.8	0	0	---	0.00	29.958 
20:25	72.5	72.5	72.5	52	53.9	0	0	---	0.00	29.958 
20:30	72.0	72.0	72.0	53	53.9	0	0	---	0.00	29.948 
20:35	71.5	71.5	71.5	54	54.0	0	0	---	0.00	29.948 
20:40	71.1	71.1	71.1	54	53.6	0	0	---	0.00	29.948 
20:45	70.9	70.9	70.9	56	54.4	0	0	---	0.00	29.950 
20:50	70.8	70.8	70.8	55	53.8	0	0	---	0.00	29.950 
20:55	70.6	70.6	70.6	54	53.1	0	0	---	0.00	29.950 
21:00	70.4	70.4	70.4	57	54.4	0	0	---	0.00	29.950 
21:05	70.3	70.3	70.3	58	54.8	0	0	---	0.00	29.950 
21:10	69.9	69.9	69.9	58	54.4	0	0	---	0.00	29.950 
21:15	69.4	69.4	69.4	58	54.0	0	0	---	0.00	29.946 
21:20	69.3	69.3	69.3	58	53.9	0	0	---	0.00	29.946 
21:25	69.1	69.1	69.1	58	53.7	0	0	---	0.00	29.946 
21:30	69.3	69.3	69.3	58	53.9	0	0	---	0.00	29.943 
21:35	69.3	69.3	69.3	59	54.3	0	0	---	0.00	29.943 
21:40	69.3	69.3	69.3	59	54.3	0	0	---	0.00	29.943 
21:45	69.3	69.3	69.3	58	53.9	0	0	---	0.00	29.938 
21:50	69.3	69.3	69.3	58	53.9	0	0	---	0.00	29.938 
21:55	69.3	69.3	69.3	59	54.3	0	0	---	0.00	29.938 
22:00	69.3	69.3	69.3	58	53.9	0	1	68	0.00	29.936 
22:05	69.4	69.4	69.4	58	54.0	0	0	---	0.00	29.936 
22:10	69.4	69.4	69.4	58	54.0	0	0	---	0.00	29.936 
22:15	69.4	69.4	69.4	58	54.0	0	1	68	0.00	29.935 
22:20	69.6	69.6	69.6	57	53.7	0	1	68	0.00	29.935 
22:25	69.8	69.8	69.8	56	53.4	0	2	68	0.00	29.935 
22:30	70.1	70.1	70.1	55	53.2	0	2	68	0.00	29.922 
22:35	70.4	70.4	70.4	54	52.9	0	2	68	0.00	29.922 
22:40	70.4	70.4	70.4	54	52.9	0	1	68	0.00	29.922 
22:45	70.4	70.4	70.4	55	53.4	0	0	---	0.00	29.924 
22:50	70.4	70.4	70.4	55	53.4	0	0	---	0.00	29.924 
22:55	70.3	70.3	70.3	55	53.4	0	1	68	0.00	29.924 
23:00	70.3	70.3	70.3	55	53.4	0	2	68	0.00	29.920 
23:05	70.3	70.3	70.3	54	52.9	0	2	68	0.00	29.920 
23:10	70.3	70.3	70.3	55	53.4	0	0	---	0.00	29.920 
23:15	70.1	70.1	70.1	55	53.2	0	1	45	0.00	29.917 
23:20	70.1	70.1	70.1	55	53.2	0	2	45	0.00	29.917 
23:25	70.1	70.1	70.1	55	53.2	0	3	45	0.00	29.917 
23:30	69.9	69.9	69.9	55	53.0	0	1	45	0.00	29.917 
23:35	69.8	69.8	69.8	55	52.9	0	0	---	0.00	29.917 
23:40	69.8	69.8	69.8	56	53.4	0	1	45	0.00	29.917 
23:45	69.6	69.6	69.6	56	53.2	0	0	---	0.00	29.916 
23:50	69.6	69.6	69.6	56	53.2	0	1	45	0.00	29.916 
23:55	69.6	69.6	69.6	56	53.2	0	1	45	0.00	29.916 

CoCoRaHS
IN-AL-39
A2 Web Hosting
Creative Commons License
GoDaddy
search engine by freefind advanced

loaded 2018-11-22 05:27:05 • last modified 2010-11-18 10:43:29
Privacy PolicyDisclaimer
• wx.awcolley.com is powered by PmWiki v.2002016 •
• all content (unless otherwise noted) © 2018 A W Colley